Time;durP1;ratioP1;P1;durP2;ratioP2;P2;SDS_P1;SDS_P2;PMS_P1;PMS_P2;Temp;Humidity;BMP_temperature;BMP_pressure;BME280_temperature;BME280_humidity;BME280_pressure;Samples;Min_cycle;Max_cycle;Signal;HPM_P1;HPM_P2
2022/05/03 00:00:15;;;;;;;11.68;7.40;;;12.30;99.90;;;;;;5032061;28;20167;-43
2022/05/03 00:03:12;;;;;;;12.25;8.80;;;12.30;99.90;;;;;;5031633;28;20219;-43
2022/05/03 00:05:54;;;;;;;9.90;8.20;;;12.30;99.90;;;;;;5031856;28;20189;-44
2022/05/03 00:08:43;;;;;;;12.57;8.50;;;12.20;99.90;;;;;;5031479;28;20210;-43
2022/05/03 00:11:28;;;;;;;19.30;8.68;;;12.20;99.90;;;;;;5031773;28;20243;-43
2022/05/03 00:14:24;;;;;;;10.85;7.50;;;12.10;99.90;;;;;;5031738;28;20241;-43
2022/05/03 00:16:51;;;;;;;11.63;8.55;;;12.10;99.90;;;;;;5031692;28;20652;-43
2022/05/03 00:19:17;;;;;;;10.00;8.82;;;12.10;99.90;;;;;;5031580;28;20167;-43
2022/05/03 00:21:43;;;;;;;10.20;8.52;;;12.10;99.90;;;;;;5031590;28;20234;-43
2022/05/03 00:24:09;;;;;;;13.30;8.82;;;12.00;99.90;;;;;;5032848;28;20364;-43
2022/05/03 00:26:35;;;;;;;13.32;8.48;;;11.90;99.90;;;;;;5035691;28;20183;-43
2022/05/03 00:29:02;;;;;;;11.15;8.05;;;12.00;99.90;;;;;;5035681;28;20159;-46
2022/05/03 00:31:28;;;;;;;13.60;8.85;;;12.10;99.90;;;;;;5035352;28;20183;-46
2022/05/03 00:33:55;;;;;;;11.68;8.48;;;12.10;99.90;;;;;;5033987;28;20202;-47
2022/05/03 00:36:22;;;;;;;15.10;8.25;;;12.10;99.90;;;;;;5035193;28;20171;-46
2022/05/03 00:38:48;;;;;;;11.20;7.97;;;12.10;99.90;;;;;;5035167;28;20163;-45
2022/05/03 00:41:46;;;;;;;9.80;8.52;;;12.10;99.90;;;;;;5035062;28;20291;-45
2022/05/03 00:47:13;;;;;;;11.50;7.72;;;12.10;99.90;;;;;;5035051;28;20182;-45
2022/05/03 00:49:52;;;;;;;9.52;8.40;;;12.10;99.90;;;;;;5035023;28;20178;-45
2022/05/03 00:52:23;;;;;;;10.85;7.63;;;12.10;99.90;;;;;;5035221;28;20224;-43
2022/05/03 00:55:26;;;;;;;9.38;7.53;;;12.00;99.90;;;;;;5034984;28;20555;-43
2022/05/03 00:58:14;;;;;;;12.77;8.57;;;12.00;99.90;;;;;;5034913;28;20170;-42
2022/05/03 01:00:53;;;;;;;9.50;7.57;;;11.90;99.90;;;;;;5034763;28;20198;-45
2022/05/03 01:03:31;;;;;;;11.38;7.93;;;11.90;99.90;;;;;;5034572;28;20715;-43
2022/05/03 01:06:16;;;;;;;9.00;8.10;;;11.80;99.90;;;;;;5034939;28;20175;-45
2022/05/03 01:08:42;;;;;;;10.82;7.63;;;11.70;99.90;;;;;;5034656;28;20163;-44
2022/05/03 01:11:34;;;;;;;11.75;8.20;;;11.70;99.90;;;;;;5034548;28;20533;-45
2022/05/03 01:14:10;;;;;;;12.80;8.90;;;11.80;99.90;;;;;;5034818;28;20194;-45
2022/05/03 01:16:55;;;;;;;11.60;7.10;;;11.90;99.90;;;;;;5034301;28;20171;-43
2022/05/03 01:19:37;;;;;;;9.85;7.65;;;11.80;99.90;;;;;;5034730;28;20171;-43
2022/05/03 01:22:25;;;;;;;9.52;7.50;;;11.80;99.90;;;;;;5034660;28;20205;-43
2022/05/03 01:25:16;;;;;;;11.65;7.82;;;11.70;99.90;;;;;;5034349;28;20535;-45
2022/05/03 01:27:52;;;;;;;9.48;7.10;;;11.70;99.90;;;;;;5034258;28;20556;-44
2022/05/03 01:30:17;;;;;;;10.55;7.68;;;11.70;99.90;;;;;;5034310;28;20289;-46
2022/05/03 01:32:45;;;;;;;11.98;7.22;;;11.60;99.90;;;;;;5034231;28;20236;-48
2022/05/03 01:35:14;;;;;;;10.27;6.90;;;11.50;99.90;;;;;;5034120;28;20221;-47
2022/05/03 01:38:17;;;;;;;10.45;6.65;;;11.50;99.90;;;;;;5034062;28;20213;-47
2022/05/03 01:41:02;;;;;;;9.27;6.97;;;11.40;99.90;;;;;;5034063;28;20345;-45
2022/05/03 01:44:00;;;;;;;10.48;7.18;;;11.30;99.90;;;;;;5033965;28;20183;-43
2022/05/03 01:46:30;;;;;;;14.45;6.80;;;11.30;99.90;;;;;;5033994;28;20225;-44
2022/05/03 01:52:13;;;;;;;10.85;6.88;;;11.30;99.90;;;;;;5034072;28;20242;-46
2022/05/03 01:55:06;;;;;;;8.43;6.90;;;11.10;99.90;;;;;;5033797;28;20167;-46
2022/05/03 01:57:41;;;;;;;13.88;7.07;;;11.10;99.90;;;;;;5034060;28;20174;-47
2022/05/03 02:00:07;;;;;;;14.60;7.93;;;11.10;99.90;;;;;;5033928;28;20229;-46
2022/05/03 02:02:43;;;;;;;12.30;7.35;;;11.10;99.90;;;;;;5033623;28;20219;-45
2022/05/03 02:05:20;;;;;;;9.88;7.60;;;11.00;99.90;;;;;;5033822;28;20175;-43
2022/05/03 02:07:54;;;;;;;12.30;7.25;;;11.00;99.90;;;;;;5033469;28;20206;-44
2022/05/03 02:10:39;;;;;;;13.43;6.82;;;11.00;99.90;;;;;;5033551;28;20517;-42
2022/05/03 02:13:23;;;;;;;9.80;6.40;;;11.00;99.90;;;;;;5033961;28;20232;-43
2022/05/03 02:15:50;;;;;;;9.32;7.55;;;10.90;99.90;;;;;;5033305;28;20205;-43
2022/05/03 02:18:32;;;;;;;9.25;6.95;;;11.00;99.90;;;;;;5033571;28;20175;-43
2022/05/03 02:21:25;;;;;;;12.15;6.93;;;11.00;99.90;;;;;;5033171;28;20203;-42
2022/05/03 02:24:12;;;;;;;13.05;7.28;;;11.10;99.90;;;;;;5027635;28;20262;-42
2022/05/03 02:26:53;;;;;;;10.30;6.90;;;11.00;99.90;;;;;;5033143;28;20213;-43
2022/05/03 02:29:26;;;;;;;9.20;7.57;;;11.00;99.90;;;;;;5033120;28;20643;-42
2022/05/03 02:32:08;;;;;;;12.63;6.85;;;11.00;99.90;;;;;;5033062;28;20175;-42
2022/05/03 02:34:48;;;;;;;7.93;6.38;;;10.90;99.90;;;;;;5033532;28;20228;-44
2022/05/03 02:37:16;;;;;;;9.50;7.07;;;10.80;99.90;;;;;;5033007;28;20532;-42
2022/05/03 02:39:59;;;;;;;11.05;6.63;;;10.80;99.90;;;;;;5032908;28;20286;-42
2022/05/03 02:42:26;;;;;;;13.80;6.63;;;10.80;99.90;;;;;;5032742;28;20207;-43
2022/05/03 02:44:56;;;;;;;11.50;6.70;;;10.70;99.90;;;;;;5032864;28;20583;-42
2022/05/03 02:47:32;;;;;;;9.02;6.97;;;10.70;99.90;;;;;;5032544;28;20512;-43
2022/05/03 02:50:12;;;;;;;10.52;6.35;;;10.70;99.90;;;;;;5031505;28;20163;-43
2022/05/03 02:52:56;;;;;;;12.30;7.43;;;10.70;99.90;;;;;;5032676;28;20163;-43
2022/05/03 02:55:31;;;;;;;9.85;7.47;;;10.60;99.90;;;;;;5032652;28;20671;-43
2022/05/03 02:57:57;;;;;;;10.43;7.20;;;10.60;99.90;;;;;;5032538;28;20170;-43
2022/05/03 03:03:21;;;;;;;10.15;6.57;;;10.50;99.90;;;;;;5032378;28;20229;-43
2022/05/03 03:05:58;;;;;;;11.55;6.97;;;10.50;99.90;;;;;;5032454;28;20167;-43
2022/05/03 03:08:23;;;;;;;11.80;7.75;;;10.50;99.90;;;;;;5032670;28;20583;-42
2022/05/03 03:10:58;;;;;;;8.98;6.80;;;10.50;99.90;;;;;;5032358;28;20167;-43
2022/05/03 03:13:33;;;;;;;10.07;7.28;;;10.40;99.90;;;;;;5032316;28;20194;-43
2022/05/03 03:15:59;;;;;;;15.43;8.20;;;10.40;99.90;;;;;;5032311;28;20171;-42
2022/05/03 03:18:28;;;;;;;9.73;7.53;;;10.40;99.90;;;;;;5032471;28;20233;-42
2022/05/03 03:20:55;;;;;;;9.10;7.35;;;10.40;99.90;;;;;;5032094;28;20195;-43
2022/05/03 03:23:25;;;;;;;12.05;7.40;;;10.30;99.90;;;;;;5032221;28;20663;-43
2022/05/03 03:25:51;;;;;;;10.02;7.50;;;10.30;99.90;;;;;;5032223;28;20178;-43
2022/05/03 03:28:20;;;;;;;11.25;8.13;;;10.30;99.90;;;;;;5030926;28;20221;-42
2022/05/03 03:30:48;;;;;;;13.07;8.00;;;10.30;99.90;;;;;;5032110;28;20641;-46
2022/05/03 03:33:16;;;;;;;9.60;6.95;;;10.30;99.90;;;;;;5032167;28;20170;-44
2022/05/03 03:35:44;;;;;;;12.70;8.13;;;10.30;99.90;;;;;;5032158;28;20648;-44
2022/05/03 03:38:12;;;;;;;10.70;7.25;;;10.30;99.90;;;;;;5032287;28;20240;-46
2022/05/03 03:40:39;;;;;;;11.98;7.35;;;10.30;99.90;;;;;;5032000;28;20314;-42
2022/05/03 03:43:06;;;;;;;10.85;7.80;;;10.30;99.90;;;;;;5032307;28;20270;-43
2022/05/03 03:45:31;;;;;;;9.93;7.50;;;10.20;99.90;;;;;;5032490;28;20182;-43
2022/05/03 03:47:59;;;;;;;13.23;8.20;;;10.20;99.90;;;;;;5031873;28;20175;-43
2022/05/03 03:50:26;;;;;;;14.63;8.20;;;10.20;99.90;;;;;;5031976;28;20827;-43
2022/05/03 03:52:52;;;;;;;13.85;7.75;;;10.30;99.90;;;;;;5031967;28;20267;-43
2022/05/03 03:55:18;;;;;;;13.43;7.70;;;10.30;99.90;;;;;;5031823;28;20163;-43
2022/05/03 03:57:44;;;;;;;14.95;7.82;;;10.20;99.90;;;;;;5031784;28;20217;-43
2022/05/03 04:00:13;;;;;;;12.30;8.00;;;10.20;99.90;;;;;;5034798;28;20707;-43
2022/05/03 04:02:41;;;;;;;12.32;7.78;;;10.20;99.90;;;;;;5035629;28;20230;-42
2022/05/03 04:05:20;;;;;;;13.98;7.63;;;10.20;99.90;;;;;;5035815;28;20596;-43
2022/05/03 04:07:45;;;;;;;15.18;8.57;;;10.20;99.90;;;;;;5035724;28;20225;-42
2022/05/03 04:10:11;;;;;;;14.48;8.52;;;10.20;99.90;;;;;;5035623;28;20582;-42
2022/05/03 04:12:37;;;;;;;14.82;8.43;;;10.20;99.90;;;;;;5035864;28;20174;-43
2022/05/03 04:15:03;;;;;;;12.00;7.75;;;10.10;99.90;;;;;;5035844;28;20226;-43
2022/05/03 04:17:29;;;;;;;12.00;8.32;;;10.00;99.90;;;;;;5035583;28;20175;-43
2022/05/03 04:19:55;;;;;;;11.77;8.40;;;10.10;99.90;;;;;;5035508;28;20171;-43
2022/05/03 04:22:32;;;;;;;13.02;8.43;;;10.10;99.90;;;;;;5035356;28;20219;-45
2022/05/03 04:25:00;;;;;;;15.95;8.90;;;10.10;99.90;;;;;;5035300;28;20171;-43
2022/05/03 04:27:27;;;;;;;11.07;7.75;;;10.20;99.90;;;;;;5035632;28;20180;-44
2022/05/03 04:29:53;;;;;;;14.60;8.70;;;10.20;99.90;;;;;;5035611;28;20294;-47
2022/05/03 04:32:19;;;;;;;12.70;8.32;;;10.10;99.90;;;;;;5035582;28;20179;-46
2022/05/03 04:34:45;;;;;;;9.27;7.53;;;10.20;99.90;;;;;;5035339;28;20175;-46
2022/05/03 04:37:10;;;;;;;12.00;8.65;;;10.20;99.90;;;;;;5035236;28;20176;-46
2022/05/03 04:39:36;;;;;;;11.65;8.15;;;10.20;99.90;;;;;;5035128;28;20203;-46
2022/05/03 04:42:02;;;;;;;10.80;8.63;;;10.20;99.90;;;;;;5035360;28;20215;-46
2022/05/03 04:44:27;;;;;;;12.90;7.65;;;10.20;99.90;;;;;;5035380;28;20222;-47
2022/05/03 04:46:54;;;;;;;13.07;8.23;;;10.20;99.90;;;;;;5034919;28;20167;-47
2022/05/03 04:49:19;;;;;;;12.63;8.23;;;10.20;99.90;;;;;;5034991;28;20577;-48
2022/05/03 04:51:45;;;;;;;11.98;8.73;;;10.10;99.90;;;;;;5033600;28;20175;-46
2022/05/03 04:54:10;;;;;;;13.20;8.18;;;10.10;99.90;;;;;;5034776;28;20167;-46
2022/05/03 04:56:36;;;;;;;12.77;8.23;;;10.10;99.90;;;;;;5034996;28;20203;-45
2022/05/03 04:59:02;;;;;;;11.35;7.47;;;10.10;99.90;;;;;;5034989;28;20626;-47
2022/05/03 05:01:29;;;;;;;12.23;8.05;;;10.10;99.90;;;;;;5034632;28;20215;-48
2022/05/03 05:03:55;;;;;;;13.73;7.97;;;10.10;99.90;;;;;;5033461;28;20685;-48
2022/05/03 05:06:20;;;;;;;14.57;8.68;;;10.20;99.90;;;;;;5033741;28;20271;-48
2022/05/03 05:08:46;;;;;;;14.10;8.25;;;10.20;99.90;;;;;;5033729;28;20232;-46
2022/05/03 05:11:11;;;;;;;12.57;8.98;;;10.20;99.90;;;;;;5033222;28;20194;-45
2022/05/03 05:13:38;;;;;;;15.13;8.18;;;10.20;99.90;;;;;;5033434;28;20171;-48
2022/05/03 05:16:05;;;;;;;12.60;8.48;;;10.30;99.90;;;;;;5032462;28;20194;-47
2022/05/03 05:18:31;;;;;;;11.10;8.43;;;10.40;99.90;;;;;;5033670;28;20253;-46
2022/05/03 05:20:56;;;;;;;13.80;7.93;;;10.50;99.90;;;;;;5033230;28;20246;-43
2022/05/03 05:23:22;;;;;;;17.75;7.90;;;10.50;99.90;;;;;;5033315;28;20175;-44
2022/05/03 05:25:49;;;;;;;12.45;8.00;;;10.50;99.90;;;;;;5033297;28;20557;-43
2022/05/03 05:28:16;;;;;;;16.13;8.38;;;10.60;99.90;;;;;;5033416;28;20180;-43
2022/05/03 05:30:42;;;;;;;11.68;8.18;;;10.60;99.90;;;;;;5033160;28;20163;-43
2022/05/03 05:33:08;;;;;;;11.63;8.15;;;10.70;99.90;;;;;;5033383;28;20177;-43
2022/05/03 05:35:34;;;;;;;13.82;8.82;;;10.80;99.90;;;;;;5033649;28;20167;-43
2022/05/03 05:37:59;;;;;;;12.85;8.25;;;10.80;99.90;;;;;;5033073;28;20163;-43
2022/05/03 05:40:25;;;;;;;10.35;7.55;;;10.90;99.90;;;;;;5033033;28;20659;-45
2022/05/03 05:42:50;;;;;;;9.98;8.13;;;11.00;99.90;;;;;;5032755;28;20209;-44
2022/05/03 05:45:17;;;;;;;10.27;7.90;;;11.00;99.90;;;;;;5033043;28;20167;-45
2022/05/03 05:47:43;;;;;;;12.60;7.00;;;11.00;99.90;;;;;;5033129;28;20254;-43
2022/05/03 05:50:12;;;;;;;16.13;8.63;;;11.10;99.90;;;;;;5032862;28;20163;-43
2022/05/03 05:55:23;;;;;;;11.48;7.80;;;11.20;99.90;;;;;;5032745;28;20183;-43
2022/05/03 05:57:49;;;;;;;11.50;8.00;;;11.30;99.90;;;;;;5032801;28;20159;-43
2022/05/03 06:00:15;;;;;;;9.13;7.38;;;11.30;99.90;;;;;;5032596;28;20179;-45
2022/05/03 06:02:41;;;;;;;11.05;8.07;;;11.30;99.90;;;;;;4995491;28;1075021;-46
2022/05/03 06:05:07;;;;;;;9.18;7.25;;;11.40;99.90;;;;;;5033794;28;20183;-43
2022/05/03 06:07:32;;;;;;;12.18;6.90;;;11.40;99.90;;;;;;5033760;28;20167;-44
2022/05/03 06:09:58;;;;;;;10.68;7.10;;;11.40;99.90;;;;;;5033449;28;20167;-43
2022/05/03 06:12:23;;;;;;;10.43;7.38;;;11.50;99.90;;;;;;5033356;28;20266;-43
2022/05/03 06:14:49;;;;;;;11.18;8.15;;;11.50;99.90;;;;;;5033258;28;20655;-44
2022/05/03 06:17:14;;;;;;;11.65;8.35;;;11.60;99.90;;;;;;5033342;28;20166;-43
2022/05/03 06:19:40;;;;;;;10.60;7.38;;;11.80;99.90;;;;;;5033240;28;20214;-44
2022/05/03 06:22:06;;;;;;;12.35;7.75;;;11.70;99.90;;;;;;5032620;28;20207;-44
2022/05/03 06:24:31;;;;;;;13.82;7.65;;;11.80;99.90;;;;;;5033743;28;20254;-44
2022/05/03 06:26:58;;;;;;;11.85;6.65;;;11.90;99.90;;;;;;5033125;28;20532;-43
2022/05/03 06:29:24;;;;;;;14.55;7.65;;;11.90;99.90;;;;;;5033326;28;20254;-44
2022/05/03 06:31:50;;;;;;;8.02;6.43;;;11.90;99.90;;;;;;5033161;28;20175;-44
2022/05/03 06:34:16;;;;;;;9.43;6.18;;;12.00;99.90;;;;;;5032905;28;20637;-44
2022/05/03 06:36:42;;;;;;;9.93;6.00;;;12.00;99.90;;;;;;5033196;28;20194;-43
2022/05/03 06:39:08;;;;;;;12.38;7.43;;;12.10;99.90;;;;;;5032798;28;20612;-43
2022/05/03 06:41:33;;;;;;;10.15;6.07;;;12.10;99.90;;;;;;5031841;28;20211;-43
2022/05/03 06:44:00;;;;;;;11.18;5.97;;;12.10;99.90;;;;;;5032838;28;20249;-43
2022/05/03 06:46:26;;;;;;;12.88;7.05;;;12.10;99.90;;;;;;5032787;28;20349;-43
2022/05/03 06:48:52;;;;;;;7.65;6.57;;;12.10;99.90;;;;;;5032660;28;20164;-44
2022/05/03 06:51:18;;;;;;;11.02;6.95;;;12.20;99.90;;;;;;5032495;28;20177;-43
2022/05/03 06:53:44;;;;;;;13.68;7.22;;;12.10;99.90;;;;;;5032650;28;20198;-43
2022/05/03 06:56:09;;;;;;;12.20;7.68;;;12.20;99.90;;;;;;5032515;28;20632;-43
2022/05/03 06:58:35;;;;;;;14.80;8.82;;;12.30;99.90;;;;;;5032600;28;20175;-43
2022/05/03 07:01:12;;;;;;;10.07;6.80;;;12.40;99.90;;;;;;5032828;28;20195;-43
2022/05/03 07:03:38;;;;;;;9.80;6.13;;;12.50;99.90;;;;;;5032310;28;20301;-47
2022/05/03 07:06:04;;;;;;;7.65;6.70;;;12.50;99.90;;;;;;5033116;28;20590;-43
2022/05/03 07:08:30;;;;;;;10.00;6.50;;;12.80;99.90;;;;;;5032533;28;20171;-45
2022/05/03 07:10:56;;;;;;;7.18;6.47;;;12.80;99.90;;;;;;5032408;28;20534;-44
2022/05/03 07:13:25;;;;;;;10.25;6.35;;;12.80;99.90;;;;;;5032406;28;20175;-44
2022/05/03 07:15:55;;;;;;;10.85;6.22;;;13.00;99.90;;;;;;5032329;28;20225;-43
2022/05/03 07:23:51;;;;;;;13.88;6.22;;;13.30;99.90;;;;;;5032405;28;20532;-42
2022/05/03 07:26:21;;;;;;;7.57;6.13;;;13.40;99.90;;;;;;5032384;28;20198;-43
2022/05/03 07:28:49;;;;;;;13.07;6.13;;;13.30;99.90;;;;;;5031965;28;20580;-44
2022/05/03 07:31:19;;;;;;;8.57;6.28;;;13.40;99.90;;;;;;5030789;28;20607;-44
2022/05/03 07:33:45;;;;;;;10.55;7.13;;;13.50;99.90;;;;;;5032137;28;20175;-45
2022/05/03 07:36:11;;;;;;;7.13;5.75;;;13.50;99.90;;;;;;5032086;28;20213;-44
2022/05/03 07:38:38;;;;;;;7.82;6.15;;;13.70;99.90;;;;;;5031945;28;20160;-43
2022/05/03 07:41:03;;;;;;;11.27;5.43;;;13.90;99.90;;;;;;5032259;28;20559;-44
2022/05/03 07:43:29;;;;;;;7.03;5.20;;;13.90;99.90;;;;;;5031940;28;20174;-43
2022/05/03 07:45:55;;;;;;;7.95;5.13;;;14.00;99.90;;;;;;5032244;28;20633;-44
2022/05/03 07:48:21;;;;;;;8.07;4.85;;;14.20;99.90;;;;;;5031904;28;20175;-44
2022/05/03 07:50:47;;;;;;;8.63;5.50;;;14.20;99.90;;;;;;5031921;28;20301;-43
2022/05/03 07:53:13;;;;;;;7.03;5.50;;;14.40;99.90;;;;;;5031880;28;20208;-44
2022/05/03 07:55:39;;;;;;;7.40;5.32;;;14.40;99.90;;;;;;5031867;28;20195;-45
2022/05/03 07:58:05;;;;;;;11.27;5.30;;;14.40;99.90;;;;;;5032140;28;20680;-43
2022/05/03 08:00:30;;;;;;;10.48;5.45;;;14.50;99.90;;;;;;5032035;28;20171;-44
2022/05/03 08:02:56;;;;;;;8.07;5.10;;;14.60;99.90;;;;;;5030425;28;20281;-45
2022/05/03 08:05:22;;;;;;;10.65;5.45;;;14.80;99.90;;;;;;5031741;28;20258;-44
2022/05/03 08:07:47;;;;;;;9.38;5.60;;;14.90;99.90;;;;;;5031710;28;20199;-44
2022/05/03 08:10:13;;;;;;;12.55;5.57;;;14.90;99.90;;;;;;5031730;28;20174;-43
2022/05/03 08:12:38;;;;;;;10.15;6.00;;;15.00;99.90;;;;;;5031639;28;20169;-43
2022/05/03 08:15:05;;;;;;;9.13;5.18;;;15.00;99.90;;;;;;5031981;28;20172;-45
2022/05/03 08:17:31;;;;;;;7.80;5.70;;;15.00;99.90;;;;;;5031912;28;20218;-45
2022/05/03 08:19:57;;;;;;;9.40;5.28;;;15.00;99.90;;;;;;5031849;28;20171;-44
2022/05/03 08:22:24;;;;;;;6.80;4.93;;;15.10;99.90;;;;;;5031521;28;20215;-44
2022/05/03 08:24:50;;;;;;;8.27;5.43;;;15.10;99.90;;;;;;5031845;28;20178;-45
2022/05/03 08:27:16;;;;;;;6.50;4.82;;;15.40;99.90;;;;;;5031508;28;20171;-44
2022/05/03 08:29:41;;;;;;;6.57;4.90;;;15.40;99.90;;;;;;5031606;28;20168;-44
2022/05/03 08:32:08;;;;;;;6.75;5.15;;;15.30;99.90;;;;;;5031427;28;20245;-44
2022/05/03 08:34:34;;;;;;;9.88;5.03;;;15.40;99.90;;;;;;5031734;28;20681;-44
2022/05/03 08:42:28;;;;;;;6.25;4.30;;;15.70;99.90;;;;;;5031329;28;20229;-44
2022/05/03 08:44:53;;;;;;;5.78;4.65;;;15.70;99.90;;;;;;5032033;28;20621;-45
2022/05/03 08:47:20;;;;;;;6.95;4.72;;;15.90;99.90;;;;;;5035011;28;20179;-44
2022/05/03 08:50:06;;;;;;;6.78;4.95;;;16.10;99.90;;;;;;5035163;28;20167;-44
2022/05/03 08:52:58;;;;;;;10.70;4.93;;;16.20;99.90;;;;;;5035285;28;20167;-44
2022/05/03 08:55:24;;;;;;;8.32;4.80;;;16.20;99.90;;;;;;5033649;28;20617;-43
2022/05/03 08:57:50;;;;;;;6.15;4.03;;;16.30;99.90;;;;;;5034807;28;20183;-43
2022/05/03 09:00:17;;;;;;;7.63;4.57;;;16.40;99.90;;;;;;5035066;28;20167;-43
2022/05/03 09:02:44;;;;;;;7.85;4.40;;;16.50;99.90;;;;;;5034543;28;20250;-44
2022/05/03 09:05:11;;;;;;;7.00;4.50;;;16.40;99.90;;;;;;5034734;28;20254;-44
2022/05/03 09:07:37;;;;;;;6.53;4.28;;;16.40;99.90;;;;;;5034612;28;20174;-44
2022/05/03 09:10:26;;;;;;;8.63;4.85;;;16.40;99.90;;;;;;5035003;28;20168;-44
2022/05/03 09:12:55;;;;;;;14.95;4.65;;;16.70;99.90;;;;;;5034602;28;20613;-43
2022/05/03 09:15:33;;;;;;;6.82;4.63;;;16.90;99.90;;;;;;5034562;28;20182;-44
2022/05/03 09:18:00;;;;;;;9.68;4.10;;;16.90;99.90;;;;;;5034526;28;20178;-44
2022/05/03 09:26:22;;;;;;;6.68;3.80;;;17.00;99.90;;;;;;5053577;28;20186;-45
2022/05/03 09:28:50;;;;;;;8.75;4.50;;;17.20;99.90;;;;;;5052875;28;20552;-48
2022/05/03 09:31:27;;;;;;;5.47;3.85;;;17.40;99.90;;;;;;5053183;28;20167;-46
2022/05/03 09:33:54;;;;;;;7.20;4.00;;;17.20;97.50;;;;;;5032865;28;20170;-45
2022/05/03 09:36:20;;;;;;;10.68;4.65;;;17.20;96.30;;;;;;5032815;28;20163;-45
2022/05/03 09:38:51;;;;;;;7.03;4.00;;;17.20;96.00;;;;;;5044769;28;20211;-47
2022/05/03 09:41:17;;;;;;;9.40;4.57;;;17.30;95.20;;;;;;5052732;28;20203;-45
2022/05/03 09:44:08;;;;;;;4.80;3.17;;;17.40;95.20;;;;;;5052565;28;20193;-47
2022/05/03 09:46:51;;;;;;;6.00;4.43;;;17.30;95.30;;;;;;5052967;28;20650;-45
2022/05/03 09:49:19;;;;;;;6.50;3.92;;;17.60;96.20;;;;;;5052560;28;20668;-48
2022/05/03 09:51:45;;;;;;;6.30;4.55;;;17.80;95.70;;;;;;5052711;28;20186;-50
2022/05/03 09:54:10;;;;;;;8.05;4.80;;;17.50;96.40;;;;;;5052436;28;20173;-46
2022/05/03 09:56:39;;;;;;;7.90;4.50;;;17.60;96.30;;;;;;5051138;28;20174;-45
2022/05/03 09:59:07;;;;;;;7.72;4.10;;;17.60;96.20;;;;;;5052253;28;20173;-49
2022/05/03 10:01:34;;;;;;;6.70;4.65;;;17.80;96.00;;;;;;5052364;28;20213;-45
2022/05/03 10:04:01;;;;;;;6.35;3.90;;;17.70;95.20;;;;;;5052418;28;20222;-46
2022/05/03 10:06:28;;;;;;;5.93;4.68;;;17.90;95.80;;;;;;5052205;28;20175;-44
2022/05/03 10:08:54;;;;;;;8.93;4.93;;;17.80;96.20;;;;;;5052082;28;20217;-45
2022/05/03 10:11:21;;;;;;;5.47;4.03;;;17.90;95.40;;;;;;5050883;28;20174;-44
2022/05/03 10:13:47;;;;;;;8.05;4.65;;;17.90;95.50;;;;;;5051898;28;20716;-47
2022/05/03 10:21:53;;;;;;;6.70;4.78;;;18.50;95.70;;;;;;5031857;28;20290;-44
2022/05/03 10:24:19;;;;;;;7.35;4.55;;;18.50;94.50;;;;;;5031883;28;20175;-46
2022/05/03 10:27:05;;;;;;;6.05;4.60;;;18.40;93.40;;;;;;5049516;28;20220;-47
2022/05/03 10:29:36;;;;;;;4.82;4.15;;;18.50;93.30;;;;;;5051987;28;20170;-43
2022/05/03 10:32:04;;;;;;;6.35;4.25;;;18.50;94.00;;;;;;5050479;28;20171;-45
2022/05/03 10:34:43;;;;;;;7.22;4.68;;;18.80;93.50;;;;;;5051898;28;20173;-45
2022/05/03 10:37:13;;;;;;;6.13;4.68;;;18.90;92.50;;;;;;5051251;28;20785;-48
2022/05/03 10:39:48;;;;;;;8.45;5.25;;;18.60;92.80;;;;;;5051396;28;20165;-47
2022/05/03 10:42:15;;;;;;;7.32;5.00;;;18.60;92.60;;;;;;5051546;28;20198;-45
2022/05/03 10:44:53;;;;;;;6.25;4.40;;;18.80;92.40;;;;;;5048385;28;20178;-45
2022/05/03 10:47:21;;;;;;;7.07;4.85;;;18.70;91.30;;;;;;5051733;28;20223;-45
2022/05/03 10:50:12;;;;;;;6.05;4.15;;;18.90;92.30;;;;;;5050328;28;20159;-44
2022/05/03 10:52:43;;;;;;;5.03;3.90;;;19.00;91.30;;;;;;5049646;28;20527;-45
2022/05/03 10:55:10;;;;;;;7.47;5.13;;;19.20;91.60;;;;;;5049780;28;20623;-45
2022/05/03 10:58:13;;;;;;;6.85;4.75;;;19.30;92.00;;;;;;5049877;28;20539;-47
2022/05/03 11:01:00;;;;;;;7.00;5.20;;;19.30;90.90;;;;;;5049438;28;20536;-45
2022/05/03 11:03:25;;;;;;;7.93;5.88;;;19.30;90.60;;;;;;5045485;28;20218;-47
2022/05/03 11:06:15;;;;;;;5.85;4.72;;;19.20;90.70;;;;;;5049449;28;20172;-44
2022/05/03 11:11:39;;;;;;;7.10;4.90;;;19.40;89.80;;;;;;5049619;28;20175;-45
2022/05/03 11:16:43;;;;;;;9.23;5.05;;;19.50;87.90;;;;;;5051034;28;20182;-45
2022/05/03 11:19:16;;;;;;;8.73;4.97;;;19.50;86.70;;;;;;5050371;28;20258;-46
2022/05/03 11:21:43;;;;;;;7.40;5.28;;;19.50;87.00;;;;;;5049692;28;20756;-44
2022/05/03 11:24:23;;;;;;;6.38;5.20;;;19.70;84.30;;;;;;5048857;28;20216;-44
2022/05/03 11:26:51;;;;;;;6.05;4.38;;;19.70;85.90;;;;;;5049081;28;20201;-44
2022/05/03 11:29:17;;;;;;;9.25;5.07;;;19.80;87.00;;;;;;5049548;28;20254;-44
2022/05/03 11:31:47;;;;;;;10.32;5.00;;;19.90;86.10;;;;;;5050773;28;20254;-44
2022/05/03 11:34:13;;;;;;;10.77;5.38;;;20.00;86.70;;;;;;5050443;28;20182;-45
2022/05/03 11:36:42;;;;;;;7.45;5.35;;;20.10;87.00;;;;;;5050699;28;20628;-46
2022/05/03 11:39:09;;;;;;;6.32;5.03;;;19.90;85.20;;;;;;5050622;28;20250;-52
2022/05/03 11:41:37;;;;;;;9.50;5.35;;;19.90;86.00;;;;;;5050613;28;20302;-52
2022/05/03 11:44:03;;;;;;;8.27;4.88;;;20.10;84.60;;;;;;5050731;28;20194;-50
2022/05/03 11:46:28;;;;;;;5.90;5.30;;;20.20;84.60;;;;;;5050539;28;20257;-52
2022/05/03 11:49:01;;;;;;;8.57;5.82;;;20.20;84.10;;;;;;5050556;28;20257;-50
2022/05/03 11:57:16;;;;;;;8.35;5.13;;;20.00;83.70;;;;;;5050707;28;20658;-52
2022/05/03 11:59:42;;;;;;;8.77;4.80;;;20.00;82.70;;;;;;5050483;28;20162;-52
2022/05/03 12:02:29;;;;;;;8.40;5.00;;;19.90;81.40;;;;;;5050326;28;20634;-52
2022/05/03 12:05:16;;;;;;;6.40;4.85;;;20.00;81.70;;;;;;5050904;28;20185;-52
2022/05/03 12:07:46;;;;;;;7.00;5.47;;;19.90;81.70;;;;;;5049322;28;20179;-52
2022/05/03 12:10:34;;;;;;;8.38;5.03;;;19.80;79.60;;;;;;5050491;28;20642;-51
2022/05/03 12:13:12;;;;;;;5.47;4.97;;;20.10;81.70;;;;;;5050516;28;20198;-52
2022/05/03 12:15:49;;;;;;;10.00;5.25;;;20.30;82.70;;;;;;5050369;28;20269;-52
2022/05/03 12:18:30;;;;;;;6.78;5.35;;;20.40;81.40;;;;;;5050056;28;20663;-52
2022/05/03 12:20:58;;;;;;;8.52;4.82;;;20.40;80.00;;;;;;5052876;28;20250;-52
2022/05/03 12:23:36;;;;;;;7.15;5.00;;;20.70;79.80;;;;;;5054419;28;20206;-52
2022/05/03 12:26:13;;;;;;;5.75;4.80;;;20.40;79.40;;;;;;5054492;28;20167;-52
2022/05/03 12:29:00;;;;;;;7.20;5.60;;;20.40;78.80;;;;;;5054226;28;20171;-51
2022/05/03 12:31:35;;;;;;;8.02;5.32;;;20.30;77.90;;;;;;5053507;28;20185;-52
2022/05/03 12:34:03;;;;;;;5.43;4.93;;;20.60;77.00;;;;;;5054145;28;20170;-49
2022/05/03 12:36:29;;;;;;;5.35;4.75;;;20.70;76.40;;;;;;5053901;28;20228;-50
2022/05/03 12:38:55;;;;;;;6.60;4.72;;;20.80;76.30;;;;;;5053882;28;20175;-52
2022/05/03 12:41:28;;;;;;;7.45;5.38;;;20.70;78.00;;;;;;5053735;28;20206;-50
2022/05/03 12:44:04;;;;;;;5.57;4.90;;;20.60;77.40;;;;;;5053684;28;20167;-49
2022/05/03 12:46:31;;;;;;;8.05;4.70;;;20.80;77.20;;;;;;5052723;28;20538;-52
2022/05/03 12:48:57;;;;;;;7.40;4.50;;;20.90;77.60;;;;;;5053636;28;20538;-48
2022/05/03 12:51:25;;;;;;;11.02;5.03;;;20.80;76.50;;;;;;5053609;28;20179;-44
2022/05/03 12:53:51;;;;;;;11.00;4.82;;;20.80;77.50;;;;;;5053709;28;20256;-44
2022/05/03 12:59:01;;;;;;;20.20;5.50;;;20.90;77.30;;;;;;5053650;28;20178;-47
2022/05/03 13:01:26;;;;;;;6.13;5.18;;;20.70;75.70;;;;;;5053392;28;20559;-47
2022/05/03 13:03:54;;;;;;;6.90;4.00;;;20.60;76.90;;;;;;5053294;28;20237;-44
2022/05/03 13:06:20;;;;;;;5.93;4.68;;;21.00;77.80;;;;;;5053414;28;20634;-46
2022/05/03 13:08:45;;;;;;;7.22;4.78;;;20.70;73.00;;;;;;5053229;28;20198;-46
2022/05/03 13:11:12;;;;;;;6.95;4.50;;;20.80;74.30;;;;;;5053509;28;20257;-45
2022/05/03 13:13:38;;;;;;;5.32;4.50;;;20.90;74.90;;;;;;5053449;28;20175;-44
2022/05/03 13:16:04;;;;;;;7.38;4.40;;;20.70;73.10;;;;;;5053269;28;20689;-45
2022/05/03 13:18:30;;;;;;;7.07;4.28;;;21.00;74.40;;;;;;5053438;28;20178;-45
2022/05/03 13:20:56;;;;;;;8.85;4.65;;;21.70;74.80;;;;;;5053080;28;20171;-46
2022/05/03 13:23:21;;;;;;;6.25;4.45;;;20.90;74.90;;;;;;5053061;28;20308;-45
2022/05/03 13:25:47;;;;;;;5.45;4.38;;;20.90;74.00;;;;;;5053044;28;20179;-45
2022/05/03 13:28:13;;;;;;;5.65;3.90;;;20.80;72.40;;;;;;5053037;28;20167;-46
2022/05/03 13:30:40;;;;;;;7.55;4.18;;;20.90;73.60;;;;;;5052593;28;20163;-47
2022/05/03 13:33:06;;;;;;;6.78;4.50;;;20.90;75.10;;;;;;5052946;28;20542;-47
2022/05/03 13:41:00;;;;;;;10.07;4.43;;;21.20;73.70;;;;;;5052989;28;20174;-49
2022/05/03 13:43:27;;;;;;;6.47;3.95;;;21.40;74.50;;;;;;5052542;28;20174;-49
2022/05/03 13:45:52;;;;;;;6.53;4.53;;;21.20;74.60;;;;;;5052634;28;20194;-48
2022/05/03 13:48:18;;;;;;;4.38;3.92;;;21.10;73.40;;;;;;5052587;28;20167;-46
2022/05/03 13:50:44;;;;;;;6.55;4.07;;;21.00;73.60;;;;;;5052458;28;20166;-46
2022/05/03 13:53:11;;;;;;;9.38;4.50;;;21.10;73.20;;;;;;5052361;28;20602;-47